createdAt,value
2018-01-31T01:52:50.596Z,69.71
2018-01-31T01:53:50.466Z,68.57
2018-01-31T01:54:50.331Z,69.14
2018-01-31T01:55:50.199Z,69.43
2018-01-31T01:56:50.065Z,69.90
2018-01-31T01:57:49.931Z,70.47
2018-01-31T01:58:49.800Z,68.29
2018-01-31T01:59:49.669Z,66.41
2018-01-31T02:00:49.533Z,65.17
2018-01-31T02:01:49.404Z,64.61
2018-01-31T02:02:49.272Z,64.79
2018-01-31T02:03:49.135Z,65.17
2018-01-31T02:04:49.002Z,66.69
2018-01-31T02:05:48.870Z,65.55
2018-01-31T02:06:48.740Z,63.10
2018-01-31T02:07:48.603Z,63.85
2018-01-31T02:08:48.470Z,65.27
2018-01-31T02:09:48.338Z,64.32
2018-01-31T02:10:48.206Z,62.91
2018-01-31T02:11:48.072Z,61.11
2018-01-31T02:12:47.940Z,59.60
2018-01-31T02:13:47.806Z,59.41
2018-01-31T02:14:47.670Z,60.74
2018-01-31T02:15:47.539Z,61.77
2018-01-31T02:16:47.406Z,63.67
2018-01-31T02:17:47.272Z,64.89
2018-01-31T02:18:47.141Z,63.76
2018-01-31T02:19:47.008Z,64.61
2018-01-31T02:20:46.875Z,65.08
2018-01-31T02:21:46.742Z,65.36
2018-01-31T02:22:46.608Z,65.27
2018-01-31T02:23:46.475Z,66.03
2018-01-31T02:24:46.342Z,66.97
2018-01-31T02:25:46.209Z,67.54
2018-01-31T02:26:46.076Z,68.01
2018-01-31T02:27:45.944Z,68.86
2018-01-31T02:28:45.810Z,69.62
2018-01-31T02:29:45.679Z,70.75
2018-01-31T02:30:45.544Z,71.41
2018-01-31T02:31:45.413Z,71.03
2018-01-31T02:32:45.277Z,71.50
2018-01-31T02:33:45.145Z,71.00
2018-01-31T02:34:45.016Z,70.24
2018-01-31T02:35:44.881Z,70.53
2018-01-31T02:36:44.746Z,71.47
2018-01-31T02:37:44.615Z,71.66
2018-01-31T02:38:44.483Z,71.84
2018-01-31T02:39:44.350Z,71.47
2018-01-31T02:40:44.216Z,70.53
2018-01-31T02:41:44.083Z,70.34
2018-01-31T02:42:43.951Z,70.24
2018-01-31T02:43:43.817Z,70.05
2018-01-31T02:44:43.685Z,70.24
2018-01-31T02:45:43.561Z,70.62
2018-01-31T02:46:43.421Z,71.47
2018-01-31T02:47:43.288Z,71.19
2018-01-31T02:48:43.155Z,70.53
2018-01-31T02:49:43.022Z,70.43
2018-01-31T02:50:42.888Z,70.24
2018-01-31T02:51:42.756Z,70.05
2018-01-31T02:52:42.623Z,70.05
2018-01-31T02:53:42.492Z,70.81
2018-01-31T02:54:42.355Z,70.62
2018-01-31T02:55:42.226Z,70.43
2018-01-31T02:56:42.092Z,70.34
2018-01-31T02:57:41.957Z,69.96
2018-01-31T02:58:41.827Z,70.24
2018-01-31T02:59:41.692Z,70.05
2018-01-31T03:00:41.562Z,70.05
2018-01-31T03:01:41.428Z,70.43
2018-01-31T03:02:41.293Z,71.84
2018-01-31T03:03:41.162Z,71.19
2018-01-31T03:04:41.034Z,71.84
2018-01-31T03:05:40.896Z,71.47
2018-01-31T03:06:40.764Z,70.24
2018-01-31T03:07:40.628Z,70.05
2018-01-31T03:08:40.498Z,70.24
2018-01-31T03:09:40.364Z,70.34
2018-01-31T03:10:40.232Z,70.53
2018-01-31T03:11:40.099Z,71.47
2018-01-31T03:12:39.966Z,71.19
2018-01-31T03:13:39.832Z,71.47
2018-01-31T03:14:39.699Z,71.37
2018-01-31T03:15:39.567Z,70.90
2018-01-31T03:16:39.433Z,71.84
2018-01-31T03:17:39.303Z,72.03
2018-01-31T03:18:39.170Z,72.69
2018-01-31T03:19:39.036Z,73.55
2018-01-31T03:20:38.901Z,72.88
2018-01-31T03:21:38.768Z,72.88
2018-01-31T03:22:38.636Z,73.45
2018-01-31T03:23:38.505Z,72.13
2018-01-31T03:24:38.371Z,71.94
2018-01-31T03:25:38.238Z,71.66
2018-01-31T03:26:38.106Z,72.22
2018-01-31T03:27:37.972Z,72.69
2018-01-31T03:28:37.839Z,72.03
2018-01-31T03:29:37.706Z,72.13
2018-01-31T03:30:37.575Z,71.37
2018-01-31T03:31:37.441Z,71.28
2018-01-31T03:32:37.307Z,71.37
2018-01-31T03:33:37.173Z,71.47
2018-01-31T03:34:37.043Z,71.94
2018-01-31T03:35:36.912Z,71.84
2018-01-31T03:36:36.778Z,71.19
2018-01-31T03:37:36.643Z,71.47
2018-01-31T03:38:36.511Z,71.37
2018-01-31T03:39:36.377Z,72.03
2018-01-31T03:40:36.245Z,71.94
2018-01-31T03:41:36.112Z,72.41
2018-01-31T03:42:35.978Z,71.28
2018-01-31T03:43:35.846Z,71.47
2018-01-31T03:44:35.712Z,71.47
2018-01-31T03:45:35.583Z,72.88
2018-01-31T03:46:35.452Z,73.55
2018-01-31T03:47:35.315Z,73.55
2018-01-31T03:48:35.184Z,73.45
2018-01-31T03:49:35.049Z,73.64
2018-01-31T03:50:34.913Z,73.55
2018-01-31T03:51:34.782Z,73.45
2018-01-31T03:52:34.649Z,72.79
2018-01-31T03:53:34.516Z,72.60
2018-01-31T03:54:34.385Z,72.60
2018-01-31T03:55:34.252Z,72.98
2018-01-31T03:56:34.117Z,73.45
2018-01-31T03:57:33.988Z,73.07
2018-01-31T03:58:33.851Z,72.03
2018-01-31T03:59:33.719Z,72.03
2018-01-31T04:00:33.585Z,72.13
2018-01-31T04:01:33.454Z,73.07
2018-01-31T04:02:33.322Z,73.26
2018-01-31T04:03:33.185Z,73.17
2018-01-31T04:04:33.054Z,72.51
2018-01-31T04:05:32.921Z,73.17
2018-01-31T04:06:32.789Z,72.79
2018-01-31T04:07:32.661Z,73.26
2018-01-31T04:08:32.525Z,72.03
2018-01-31T04:09:32.390Z,71.94
2018-01-31T04:10:32.255Z,72.32
2018-01-31T04:11:32.120Z,73.26
2018-01-31T04:12:31.989Z,74.02
2018-01-31T04:13:31.856Z,74.96
2018-01-31T04:14:31.725Z,74.49
2018-01-31T04:15:31.589Z,73.83
2018-01-31T04:16:31.456Z,71.94
2018-01-31T04:17:31.323Z,71.19
2018-01-31T04:18:31.190Z,72.13
2018-01-31T04:19:31.058Z,71.94
2018-01-31T04:20:30.924Z,72.07
2018-01-31T04:21:30.790Z,73.07
2018-01-31T04:22:30.657Z,72.45
2018-01-31T04:23:30.524Z,71.88
2018-01-31T04:24:30.392Z,70.56
2018-01-31T04:25:30.259Z,70.28
2018-01-31T04:26:30.123Z,70.28
2018-01-31T04:27:29.994Z,70.84
2018-01-31T04:28:29.857Z,71.22
2018-01-31T04:29:29.724Z,72.07
2018-01-31T04:30:29.591Z,73.02
2018-01-31T04:31:29.458Z,73.68
2018-01-31T04:32:29.324Z,73.39
2018-01-31T04:33:29.191Z,73.30
2018-01-31T04:34:29.059Z,71.98
2018-01-31T04:35:28.926Z,72.07
2018-01-31T04:36:28.792Z,72.26
2018-01-31T04:37:28.672Z,72.36
2018-01-31T04:38:28.524Z,72.07
2018-01-31T04:39:28.392Z,71.98
2018-01-31T04:40:28.259Z,71.31
2018-01-31T04:41:28.127Z,71.22
2018-01-31T04:42:27.994Z,71.31
2018-01-31T04:43:27.860Z,70.56
2018-01-31T04:44:27.727Z,71.22
2018-01-31T04:45:27.594Z,70.65
2018-01-31T04:46:27.460Z,70.00
2018-01-31T04:47:27.329Z,68.95
2018-01-31T04:48:27.196Z,68.01
2018-01-31T04:49:27.060Z,68.48
2018-01-31T04:50:26.928Z,67.63
2018-01-31T04:51:26.795Z,67.16
2018-01-31T04:52:26.661Z,67.82
2018-01-31T04:53:26.529Z,67.63
2018-01-31T04:54:26.400Z,68.20
2018-01-31T04:55:26.262Z,67.54
2018-01-31T04:56:26.147Z,67.63
2018-01-31T04:57:25.995Z,69.14
2018-01-31T04:58:25.864Z,67.54
2018-01-31T04:59:25.753Z,66.88
2018-01-31T05:00:25.594Z,65.55
2018-01-31T05:01:25.462Z,64.89
2018-01-31T05:02:25.330Z,65.27
2018-01-31T05:03:25.195Z,65.74
2018-01-31T05:04:25.096Z,66.97
2018-01-31T05:05:24.928Z,67.82
2018-01-31T05:06:24.795Z,68.07
2018-01-31T05:07:24.661Z,69.14
2018-01-31T05:08:24.549Z,68.10
2018-01-31T05:09:24.395Z,67.13
2018-01-31T05:10:24.264Z,67.25
2018-01-31T05:11:24.130Z,68.73
2018-01-31T05:12:23.997Z,69.58
2018-01-31T05:13:23.863Z,70.24
2018-01-31T05:14:23.731Z,71.47
2018-01-31T05:15:23.601Z,71.47
2018-01-31T05:16:23.467Z,70.62
2018-01-31T05:17:23.330Z,69.67
2018-01-31T05:18:23.196Z,68.26
2018-01-31T05:19:23.065Z,66.75
2018-01-31T05:20:22.929Z,66.65
2018-01-31T05:21:22.797Z,65.71
2018-01-31T05:22:22.666Z,65.23
2018-01-31T05:23:22.531Z,65.90
2018-01-31T05:24:22.397Z,66.56
2018-01-31T05:25:22.263Z,66.75
2018-01-31T05:26:22.129Z,67.79
2018-01-31T05:27:21.999Z,69.49
2018-01-31T05:28:21.859Z,69.58
2018-01-31T05:29:21.728Z,69.58
2018-01-31T05:30:21.594Z,69.49
2018-01-31T05:31:21.475Z,70.24
2018-01-31T05:32:21.369Z,69.86
2018-01-31T05:33:21.222Z,69.96
2018-01-31T05:34:21.062Z,69.81
2018-01-31T05:35:20.930Z,70.09
2018-01-31T05:36:20.795Z,70.00
2018-01-31T05:37:20.663Z,69.90
2018-01-31T05:38:20.528Z,69.90
2018-01-31T05:39:20.395Z,70.00
2018-01-31T05:40:20.261Z,71.22
2018-01-31T05:41:20.127Z,70.53
2018-01-31T05:42:19.995Z,69.77
2018-01-31T05:43:19.864Z,69.39
2018-01-31T05:44:19.731Z,68.26
2018-01-31T05:45:19.687Z,68.26
2018-01-31T05:46:19.469Z,69.39
2018-01-31T05:47:19.450Z,68.54
2018-01-31T05:48:19.195Z,68.26
2018-01-31T05:49:19.061Z,68.16
2018-01-31T05:50:18.927Z,67.22
2018-01-31T05:51:18.796Z,65.90
2018-01-31T05:52:18.665Z,65.52
2018-01-31T05:53:18.539Z,65.71
2018-01-31T05:54:18.424Z,66.09
2018-01-31T05:55:18.265Z,65.90
2018-01-31T05:56:18.156Z,67.79
2018-01-31T05:57:18.002Z,68.92
2018-01-31T05:58:17.862Z,68.54
2018-01-31T05:59:17.768Z,69.01
2018-01-31T06:00:17.600Z,67.97
2018-01-31T06:01:17.465Z,68.26
2018-01-31T06:02:17.339Z,68.07
2018-01-31T06:03:17.197Z,68.26
2018-01-31T06:04:17.061Z,68.54
2018-01-31T06:05:16.951Z,67.69
2018-01-31T06:06:16.794Z,67.32
2018-01-31T06:07:16.662Z,68.07
2018-01-31T06:08:16.526Z,68.73
2018-01-31T06:09:16.394Z,68.82
2018-01-31T06:10:16.257Z,69.11
2018-01-31T06:11:16.130Z,67.79
2018-01-31T06:12:15.998Z,68.16
2018-01-31T06:13:15.861Z,68.92
2018-01-31T06:14:15.726Z,68.92
2018-01-31T06:15:15.591Z,68.26
2018-01-31T06:16:15.460Z,68.82
2018-01-31T06:17:15.326Z,67.79
2018-01-31T06:18:15.194Z,67.22
2018-01-31T06:19:15.061Z,67.97
2018-01-31T06:20:14.927Z,66.84
2018-01-31T06:21:14.794Z,64.79
2018-01-31T06:22:14.662Z,63.95
2018-01-31T06:23:14.529Z,64.79
2018-01-31T06:24:14.394Z,64.48
2018-01-31T06:25:14.260Z,65.46
2018-01-31T06:26:14.127Z,66.65
2018-01-31T06:27:13.997Z,66.94
2018-01-31T06:28:13.858Z,67.60
2018-01-31T06:29:13.723Z,68.07
2018-01-31T06:30:13.592Z,68.92
2018-01-31T06:31:13.458Z,69.67
2018-01-31T06:32:13.326Z,69.86
2018-01-31T06:33:13.192Z,71.28
2018-01-31T06:34:13.058Z,71.84
2018-01-31T06:35:12.924Z,72.22
2018-01-31T06:36:12.791Z,71.94
2018-01-31T06:37:12.656Z,71.84
2018-01-31T06:38:12.526Z,71.37
2018-01-31T06:39:12.391Z,71.47
2018-01-31T06:40:12.261Z,70.34
2018-01-31T06:41:12.123Z,70.15
2018-01-31T06:42:11.989Z,69.96
2018-01-31T06:43:11.857Z,69.86
2018-01-31T06:44:11.724Z,69.49
2018-01-31T06:45:11.592Z,70.24
2018-01-31T06:46:11.458Z,69.77
2018-01-31T06:47:11.351Z,69.86
2018-01-31T06:48:11.190Z,69.30
2018-01-31T06:49:11.057Z,69.81
2018-01-31T06:50:10.924Z,70.56
2018-01-31T06:51:10.799Z,69.96
2018-01-31T06:52:10.658Z,69.58
2018-01-31T06:53:10.523Z,69.67
2018-01-31T06:54:10.392Z,70.62
2018-01-31T06:55:10.259Z,71.84
2018-01-31T06:56:10.125Z,72.51
2018-01-31T06:57:09.994Z,73.07
2018-01-31T06:58:09.861Z,73.17
2018-01-31T06:59:09.729Z,73.17
2018-01-31T07:00:09.639Z,73.26
2018-01-31T07:01:09.460Z,73.45
2018-01-31T07:02:09.328Z,73.55
2018-01-31T07:03:09.195Z,73.36
2018-01-31T07:04:09.062Z,72.79
2018-01-31T07:05:08.929Z,72.88
2018-01-31T07:06:08.801Z,73.45
2018-01-31T07:07:08.712Z,72.13
2018-01-31T07:08:08.530Z,71.66
2018-01-31T07:09:08.398Z,70.62
2018-01-31T07:10:08.264Z,69.96
2018-01-31T07:11:08.136Z,69.86
2018-01-31T07:12:08.012Z,69.77
2018-01-31T07:13:07.878Z,69.58
2018-01-31T07:14:07.735Z,68.92
2018-01-31T07:15:07.598Z,69.96
2018-01-31T07:16:07.465Z,70.72
2018-01-31T07:17:07.330Z,70.56
2018-01-31T07:18:07.197Z,70.47
2018-01-31T07:19:07.067Z,70.37
2018-01-31T07:20:06.932Z,69.05
2018-01-31T07:21:06.798Z,68.20
2018-01-31T07:22:06.667Z,67.63
2018-01-31T07:23:06.535Z,66.88
2018-01-31T07:24:06.399Z,66.88
2018-01-31T07:25:06.266Z,67.35
2018-01-31T07:26:06.135Z,67.44
2018-01-31T07:27:05.998Z,67.25
2018-01-31T07:28:05.867Z,67.44
2018-01-31T07:29:05.736Z,68.48
2018-01-31T07:30:05.602Z,69.52
2018-01-31T07:31:05.469Z,70.00
2018-01-31T07:32:05.337Z,70.65
2018-01-31T07:33:05.202Z,71.41
2018-01-31T07:34:05.067Z,71.88
2018-01-31T07:35:04.936Z,70.84
2018-01-31T07:36:04.803Z,71.22
2018-01-31T07:37:04.671Z,72.07
2018-01-31T07:38:04.539Z,72.83
2018-01-31T07:39:04.446Z,73.11
2018-01-31T07:40:04.278Z,72.07
2018-01-31T07:41:04.142Z,71.88
2018-01-31T07:42:04.007Z,70.37
2018-01-31T07:43:03.875Z,70.09
2018-01-31T07:44:03.740Z,69.52
2018-01-31T07:45:03.608Z,69.52
2018-01-31T07:46:03.477Z,69.81
2018-01-31T07:47:03.340Z,68.95
2018-01-31T07:48:03.209Z,67.63
2018-01-31T07:49:03.076Z,67.54
2018-01-31T07:50:02.944Z,67.82
2018-01-31T07:51:02.811Z,67.07
2018-01-31T07:52:02.678Z,68.29
2018-01-31T07:53:02.546Z,68.86
2018-01-31T07:54:02.412Z,68.39
2018-01-31T07:55:02.280Z,68.01
2018-01-31T07:56:02.147Z,67.44
2018-01-31T07:57:02.014Z,67.25
2018-01-31T07:58:01.883Z,67.82
2018-01-31T07:59:01.750Z,69.05
2018-01-31T08:00:01.616Z,68.33
2018-01-31T08:01:01.481Z,68.01
2018-01-31T08:02:01.352Z,69.62
2018-01-31T08:03:01.221Z,70.47
2018-01-31T08:04:01.087Z,70.84
2018-01-31T08:05:00.953Z,71.50
2018-01-31T08:06:00.821Z,72.45
2018-01-31T08:07:00.689Z,73.21
2018-01-31T08:08:00.559Z,73.39
2018-01-31T08:09:00.423Z,73.02
2018-01-31T08:10:00.298Z,72.73
2018-01-31T08:11:00.162Z,72.36
2018-01-31T08:12:00.029Z,71.22
2018-01-31T08:12:59.897Z,70.50
2018-01-31T08:13:59.760Z,69.84
2018-01-31T08:14:59.631Z,70.03
2018-01-31T08:15:59.498Z,69.74
2018-01-31T08:16:59.366Z,68.61
2018-01-31T08:17:59.243Z,67.66
2018-01-31T08:18:59.103Z,67.00
2018-01-31T08:19:58.969Z,65.87
2018-01-31T08:20:58.836Z,65.87
2018-01-31T08:21:58.704Z,65.59
2018-01-31T08:22:58.576Z,66.16
2018-01-31T08:23:58.439Z,66.63
2018-01-31T08:24:58.308Z,66.16
2018-01-31T08:25:58.185Z,64.54
2018-01-31T08:26:58.042Z,63.32
2018-01-31T08:27:57.915Z,63.23
2018-01-31T08:28:57.777Z,62.56
2018-01-31T08:29:57.647Z,63.60
2018-01-31T08:30:57.514Z,63.51
2018-01-31T08:31:57.383Z,63.60
2018-01-31T08:32:57.256Z,64.17
2018-01-31T08:33:57.123Z,64.83
2018-01-31T08:34:56.988Z,63.70
2018-01-31T08:35:56.855Z,63.60
2018-01-31T08:36:56.724Z,62.66
2018-01-31T08:37:56.589Z,63.00
2018-01-31T08:38:56.471Z,63.48
2018-01-31T08:39:56.324Z,63.85
2018-01-31T08:40:56.195Z,64.23
2018-01-31T08:41:56.063Z,65.17
2018-01-31T08:42:55.930Z,64.51
2018-01-31T08:43:55.798Z,63.57
2018-01-31T08:44:55.676Z,64.61
2018-01-31T08:45:55.534Z,64.98
2018-01-31T08:46:55.401Z,64.61
2018-01-31T08:47:55.271Z,63.95
2018-01-31T08:48:55.136Z,64.42
2018-01-31T08:49:55.011Z,63.76
2018-01-31T08:50:54.877Z,63.76
2018-01-31T08:51:54.739Z,63.85
2018-01-31T08:52:54.610Z,63.95
2018-01-31T08:53:54.478Z,63.67
2018-01-31T08:54:54.344Z,63.00
2018-01-31T08:55:54.213Z,61.90
2018-01-31T08:56:54.082Z,60.39
2018-01-31T08:57:53.946Z,59.44
2018-01-31T08:58:53.816Z,57.55
2018-01-31T08:59:53.686Z,55.88
2018-01-31T09:00:53.552Z,54.27
2018-01-31T09:01:53.421Z,53.61
2018-01-31T09:02:53.289Z,53.14
2018-01-31T09:03:53.154Z,52.57
2018-01-31T09:04:53.024Z,51.37
2018-01-31T09:05:52.891Z,50.80
2018-01-31T09:06:52.836Z,51.09
2018-01-31T09:07:52.626Z,50.33
2018-01-31T09:08:52.498Z,49.85
2018-01-31T09:09:52.366Z,48.93
2018-01-31T09:10:52.235Z,47.89
2018-01-31T09:11:52.101Z,46.59
2018-01-31T09:12:51.970Z,45.74
2018-01-31T09:13:51.841Z,45.29
2018-01-31T09:14:51.708Z,45.86
2018-01-31T09:15:51.582Z,45.19
2018-01-31T09:16:51.452Z,44.36
2018-01-31T09:17:51.321Z,43.98
2018-01-31T09:18:51.190Z,43.13
2018-01-31T09:19:51.065Z,43.41
2018-01-31T09:20:50.931Z,43.24
2018-01-31T09:21:50.804Z,42.11
2018-01-31T09:22:50.676Z,41.54
2018-01-31T09:23:50.545Z,41.46
2018-01-31T09:24:50.423Z,41.66
2018-01-31T09:25:50.290Z,40.99
2018-01-31T09:26:50.160Z,40.99
2018-01-31T09:27:50.036Z,41.08
2018-01-31T09:28:49.904Z,40.04
2018-01-31T09:29:49.806Z,39.18
2018-01-31T09:30:49.650Z,39.18
2018-01-31T09:31:49.523Z,39.30
2018-01-31T09:32:49.394Z,40.25
2018-01-31T09:33:49.278Z,39.89
2018-01-31T09:34:49.141Z,39.61
2018-01-31T09:35:49.016Z,38.94
2018-01-31T09:36:48.888Z,37.40
2018-01-31T09:37:48.762Z,37.12
2018-01-31T09:38:48.641Z,37.80
2018-01-31T09:39:48.508Z,38.56
2018-01-31T09:40:48.383Z,37.99
2018-01-31T09:41:48.259Z,37.52
2018-01-31T09:42:48.134Z,37.04
2018-01-31T09:43:48.012Z,36.66
2018-01-31T09:44:47.877Z,36.19
2018-01-31T09:45:47.755Z,36.00
2018-01-31T09:46:47.630Z,36.46
2018-01-31T09:47:47.501Z,36.00
2018-01-31T09:48:47.375Z,35.81
2018-01-31T09:49:47.250Z,36.47
2018-01-31T09:50:47.127Z,37.61
2018-01-31T09:51:46.999Z,37.04
2018-01-31T09:52:46.872Z,36.30
2018-01-31T09:53:46.747Z,36.19
2018-01-31T09:54:46.620Z,35.81
2018-01-31T09:55:46.495Z,35.81
2018-01-31T09:56:46.373Z,36.28
2018-01-31T09:57:46.243Z,36.38
2018-01-31T09:58:46.118Z,37.42
2018-01-31T09:59:45.991Z,37.13
2018-01-31T10:00:45.864Z,37.21
2018-01-31T10:01:45.738Z,38.75
2018-01-31T10:02:45.613Z,38.85
2018-01-31T10:03:45.488Z,38.65
2018-01-31T10:04:45.362Z,38.26
2018-01-31T10:05:45.238Z,38.73
2018-01-31T10:06:45.110Z,39.40
2018-01-31T10:07:44.981Z,39.49
2018-01-31T10:08:44.855Z,39.78
2018-01-31T10:09:44.731Z,40.53
2018-01-31T10:10:44.607Z,41.30
2018-01-31T10:11:44.477Z,40.63
2018-01-31T10:12:44.352Z,39.98
2018-01-31T10:13:44.229Z,39.61
2018-01-31T10:14:44.099Z,38.85
2018-01-31T10:15:43.974Z,39.04
2018-01-31T10:16:43.847Z,39.23
2018-01-31T10:17:43.722Z,39.91
2018-01-31T10:18:43.596Z,39.34
2018-01-31T10:19:43.471Z,38.10
2018-01-31T10:20:43.343Z,38.39
2018-01-31T10:21:43.220Z,38.48
2018-01-31T10:22:43.095Z,38.87
2018-01-31T10:23:42.969Z,39.23
2018-01-31T10:24:42.846Z,39.51
2018-01-31T10:25:42.720Z,39.51
2018-01-31T10:26:42.596Z,40.08
2018-01-31T10:27:42.470Z,40.65
2018-01-31T10:28:42.342Z,40.84
2018-01-31T10:29:42.220Z,39.79
2018-01-31T10:30:42.098Z,38.96
2018-01-31T10:31:41.970Z,37.92
2018-01-31T10:32:41.846Z,37.18
2018-01-31T10:33:41.720Z,37.46
2018-01-31T10:34:41.596Z,37.18
2018-01-31T10:35:41.474Z,37.18
2018-01-31T10:36:41.348Z,37.46
2018-01-31T10:37:41.223Z,37.55
2018-01-31T10:38:41.104Z,37.67
2018-01-31T10:39:40.977Z,37.27
2018-01-31T10:40:40.850Z,37.48
2018-01-31T10:41:40.727Z,37.10
2018-01-31T10:42:40.604Z,37.18
2018-01-31T10:43:40.483Z,37.37
2018-01-31T10:44:40.358Z,37.48
2018-01-31T10:45:40.232Z,37.95
2018-01-31T10:46:40.107Z,37.57
2018-01-31T10:47:39.986Z,37.02
2018-01-31T10:48:39.860Z,36.35
2018-01-31T10:49:39.739Z,35.96
2018-01-31T10:50:39.613Z,35.02
2018-01-31T10:51:39.491Z,33.78
2018-01-31T10:52:39.368Z,32.82
2018-01-31T10:57:38.752Z,30.76
2018-01-31T10:58:38.628Z,30.96
2018-01-31T10:59:38.505Z,31.05
2018-01-31T11:00:38.382Z,31.15
2018-01-31T11:01:38.260Z,31.32
2018-01-31T11:02:38.136Z,31.63
2018-01-31T11:03:38.015Z,31.53
2018-01-31T11:04:37.891Z,32.21
2018-01-31T11:05:37.769Z,31.74
2018-01-31T11:06:37.654Z,31.16
2018-01-31T11:07:37.524Z,31.84
2018-01-31T11:08:37.403Z,32.21
2018-01-31T11:09:37.279Z,32.96
2018-01-31T11:10:37.159Z,33.63
2018-01-31T11:11:37.037Z,34.31
2018-01-31T11:12:36.913Z,34.11
2018-01-31T11:13:36.793Z,33.88
2018-01-31T11:14:36.673Z,36.07
2018-01-31T11:15:36.552Z,37.02
2018-01-31T11:16:36.436Z,37.19
2018-01-31T11:17:36.308Z,38.62
2018-01-31T11:18:36.188Z,37.30
2018-01-31T11:19:36.064Z,37.40
2018-01-31T11:20:35.943Z,36.35
2018-01-31T11:21:35.823Z,36.35
2018-01-31T11:22:35.702Z,35.78
2018-01-31T11:23:35.578Z,35.97
2018-01-31T11:24:35.457Z,35.12
2018-01-31T11:25:35.337Z,34.64
2018-01-31T11:26:35.217Z,34.83
2018-01-31T11:27:35.093Z,34.64
2018-01-31T11:28:34.971Z,33.50
2018-01-31T11:29:34.849Z,32.56
2018-01-31T11:30:34.725Z,31.90
2018-01-31T11:31:34.601Z,31.84
2018-01-31T11:32:34.483Z,31.05
2018-01-31T11:33:34.359Z,31.24
2018-01-31T11:34:34.236Z,29.72
2018-01-31T11:35:34.118Z,30.00
2018-01-31T11:36:33.990Z,30.87
2018-01-31T11:37:33.872Z,30.10
2018-01-31T11:38:33.748Z,30.49
2018-01-31T11:39:33.623Z,31.15
2018-01-31T11:40:33.502Z,32.18
2018-01-31T11:41:33.383Z,32.95
2018-01-31T11:42:33.261Z,33.23
2018-01-31T11:43:33.135Z,33.42
2018-01-31T11:44:33.013Z,34.18
2018-01-31T11:45:32.890Z,35.04
2018-01-31T11:46:32.769Z,35.71
2018-01-31T11:47:32.646Z,35.52
2018-01-31T11:48:32.523Z,34.56
2018-01-31T11:49:32.402Z,34.56
2018-01-31T11:50:32.281Z,34.75
2018-01-31T11:51:32.160Z,33.14
2018-01-31T11:52:32.035Z,31.42
2018-01-31T11:53:31.914Z,32.37
2018-01-31T11:54:31.791Z,32.39
2018-01-31T11:55:31.670Z,31.63
2018-01-31T11:56:31.548Z,32.18
2018-01-31T11:57:31.425Z,33.14
2018-01-31T11:58:31.327Z,34.11
2018-01-31T11:59:31.179Z,34.39
2018-01-31T12:00:31.058Z,34.87
2018-01-31T12:01:30.935Z,33.99
2018-01-31T12:02:30.813Z,34.07
2018-01-31T12:03:30.691Z,35.69
2018-01-31T12:04:30.568Z,36.16
2018-01-31T12:05:30.446Z,35.88
2018-01-31T12:06:30.325Z,36.08
2018-01-31T12:07:30.202Z,35.52
2018-01-31T12:08:30.080Z,35.80
2018-01-31T12:09:29.958Z,36.35
2018-01-31T12:10:29.836Z,36.26
2018-01-31T12:11:29.711Z,36.08
2018-01-31T12:12:29.593Z,35.99
2018-01-31T12:13:29.470Z,34.94
2018-01-31T12:14:29.348Z,34.74
2018-01-31T12:15:29.227Z,35.12
2018-01-31T12:16:29.104Z,35.60
2018-01-31T12:17:28.980Z,34.85
2018-01-31T12:18:28.860Z,35.42
2018-01-31T12:19:28.734Z,35.99
2018-01-31T12:20:28.612Z,35.04
2018-01-31T12:21:28.489Z,34.75
2018-01-31T12:22:28.370Z,34.94
2018-01-31T12:23:28.246Z,34.92
2018-01-31T12:24:28.126Z,35.02
2018-01-31T12:25:27.998Z,35.02
2018-01-31T12:26:28.116Z,34.74
2018-01-31T12:27:27.755Z,34.64
2018-01-31T12:28:27.631Z,34.64
2018-01-31T12:29:27.666Z,35.02
2018-01-31T12:30:27.516Z,34.92
2018-01-31T12:31:27.263Z,34.55
2018-01-31T12:32:27.139Z,34.45
2018-01-31T12:33:27.017Z,34.55
2018-01-31T12:34:26.894Z,34.83
2018-01-31T12:35:26.770Z,35.02
2018-01-31T12:36:26.653Z,35.69
2018-01-31T12:37:26.568Z,35.78
2018-01-31T12:38:26.401Z,35.02
2018-01-31T12:39:26.277Z,35.00
2018-01-31T12:40:26.156Z,34.83
2018-01-31T12:41:26.031Z,34.72
2018-01-31T12:42:25.910Z,35.77
2018-01-31T12:43:25.787Z,35.48
2018-01-31T12:44:25.664Z,34.83
2018-01-31T12:45:25.539Z,35.02
2018-01-31T12:46:25.416Z,34.83
2018-01-31T12:47:25.294Z,34.85
2018-01-31T12:48:25.169Z,34.74
2018-01-31T12:49:25.110Z,35.04
2018-01-31T12:50:24.922Z,35.04
2018-01-31T12:51:24.823Z,34.75
2018-01-31T12:52:24.676Z,34.38
2018-01-31T12:53:24.568Z,34.09
2018-01-31T12:54:24.427Z,33.90
2018-01-31T12:55:24.303Z,34.09
2018-01-31T12:56:24.179Z,34.18
2018-01-31T12:57:24.058Z,33.90
2018-01-31T12:58:23.934Z,34.01
2018-01-31T12:59:23.815Z,34.11
2018-01-31T13:00:23.686Z,33.84
2018-01-31T13:01:23.585Z,33.26
2018-01-31T13:02:23.450Z,32.60
2018-01-31T13:03:23.317Z,32.68
2018-01-31T13:04:23.195Z,32.40
2018-01-31T13:05:23.071Z,32.12
2018-01-31T13:06:22.948Z,32.40
2018-01-31T13:07:22.825Z,32.14
2018-01-31T13:08:22.707Z,31.09
2018-01-31T13:09:22.580Z,30.82
2018-01-31T13:10:22.586Z,30.34
2018-01-31T13:11:22.332Z,28.83
2018-01-31T13:12:22.211Z,28.92
2018-01-31T13:13:22.103Z,28.83
2018-01-31T13:14:21.967Z,27.87
2018-01-31T13:15:21.865Z,28.72
2018-01-31T13:16:21.730Z,29.08
2018-01-31T13:17:21.601Z,29.18
2018-01-31T13:18:21.482Z,30.02
2018-01-31T13:19:21.355Z,31.05
2018-01-31T13:20:21.316Z,31.92
2018-01-31T13:21:21.118Z,32.48
2018-01-31T13:22:20.998Z,32.69
2018-01-31T13:23:21.008Z,33.64
2018-01-31T13:24:20.747Z,33.64
2018-01-31T13:25:20.627Z,32.40
2018-01-31T13:26:20.501Z,32.96
2018-01-31T13:27:20.381Z,32.58
2018-01-31T13:28:20.259Z,32.60
2018-01-31T13:29:20.257Z,32.77
2018-01-31T13:30:20.019Z,32.60
2018-01-31T13:31:19.895Z,32.31
2018-01-31T13:32:19.782Z,32.60
2018-01-31T13:33:19.748Z,32.14
2018-01-31T13:34:19.809Z,30.80
2018-01-31T13:35:19.403Z,30.04
2018-01-31T13:36:19.282Z,29.85
2018-01-31T13:37:19.161Z,28.89
2018-01-31T13:38:19.039Z,28.70
2018-01-31T13:39:18.921Z,29.27
2018-01-31T13:40:18.797Z,30.05
2018-01-31T13:41:18.678Z,30.42
2018-01-31T13:42:18.555Z,31.18
2018-01-31T13:43:18.431Z,30.71
2018-01-31T13:44:18.308Z,30.32
2018-01-31T13:45:18.211Z,30.23
2018-01-31T13:46:18.068Z,30.99
2018-01-31T13:47:17.947Z,31.37
2018-01-31T13:48:17.975Z,31.56
2018-01-31T13:49:17.703Z,32.14
2018-01-31T13:50:17.654Z,31.09
2018-01-31T13:51:17.459Z,31.37
2018-01-31T13:52:17.337Z,30.13
2018-01-31T13:53:17.216Z,30.32
2018-01-31T13:54:17.093Z,30.99
2018-01-31T13:55:16.972Z,30.61
2018-01-31T13:56:16.849Z,30.99
2018-01-31T13:57:16.760Z,31.10
2018-01-31T13:58:16.608Z,31.10
2018-01-31T13:59:16.487Z,30.32
2018-01-31T14:00:16.370Z,31.36
2018-01-31T14:01:16.387Z,30.88
2018-01-31T14:02:16.122Z,31.36
2018-01-31T14:03:16.006Z,32.42
2018-01-31T14:04:15.879Z,32.42
2018-01-31T14:05:15.760Z,31.56
2018-01-31T14:06:15.637Z,31.55
2018-01-31T14:07:15.517Z,31.45
2018-01-31T14:08:15.449Z,32.40
2018-01-31T14:09:15.275Z,33.28
2018-01-31T14:10:15.154Z,32.14
2018-01-31T14:11:15.034Z,30.88
2018-01-31T14:12:14.911Z,30.98
2018-01-31T14:13:14.791Z,32.42
2018-01-31T14:14:14.668Z,31.26
2018-01-31T14:15:14.546Z,30.98
2018-01-31T14:16:14.433Z,30.79
2018-01-31T14:17:14.343Z,30.20
2018-01-31T14:18:14.183Z,30.02
2018-01-31T14:19:14.062Z,31.85
2018-01-31T14:20:13.953Z,31.56
2018-01-31T14:21:13.820Z,29.93
2018-01-31T14:22:13.700Z,29.64
2018-01-31T14:23:13.595Z,30.31
2018-01-31T14:24:13.457Z,30.88
2018-01-31T14:25:13.388Z,31.16
2018-01-31T14:26:13.236Z,31.37
2018-01-31T14:27:13.090Z,34.71
2018-01-31T14:28:12.971Z,38.89
2018-01-31T14:29:12.853Z,40.22
2018-01-31T14:30:12.732Z,37.27
2018-01-31T14:31:12.614Z,38.41
2018-01-31T14:32:12.492Z,39.92
2018-01-31T14:33:12.370Z,40.77
2018-01-31T14:34:12.249Z,41.06
2018-01-31T14:35:12.128Z,40.47
2018-01-31T14:36:12.008Z,40.73
2018-01-31T14:37:11.926Z,45.00
2018-01-31T14:38:11.768Z,48.77
2018-01-31T14:39:11.654Z,50.20
2018-01-31T14:40:11.528Z,50.87
2018-01-31T14:41:11.406Z,51.72
2018-01-31T14:42:11.283Z,51.53
2018-01-31T14:43:11.162Z,51.06
2018-01-31T14:44:11.229Z,51.15
2018-01-31T14:45:10.920Z,51.25
2018-01-31T14:46:10.798Z,51.41
2018-01-31T14:47:10.676Z,53.22